sensor_id;sensor_type;location;lat;lon;timestamp;pressure;altitude;pressure_sealevel;temperature;humidity
29825;BME280;16713;52.916;12.834;2022-12-05T00:03:41;101263.91;;;2.40;81.35
29825;BME280;16713;52.916;12.834;2022-12-05T00:06:08;101269.00;;;2.47;82.35
29825;BME280;16713;52.916;12.834;2022-12-05T00:08:34;101275.84;;;2.39;83.13
29825;BME280;16713;52.916;12.834;2022-12-05T00:11:00;101267.97;;;2.43;82.13
29825;BME280;16713;52.916;12.834;2022-12-05T00:13:27;101266.13;;;2.62;82.54
29825;BME280;16713;52.916;12.834;2022-12-05T00:15:53;101261.06;;;2.55;80.92
29825;BME280;16713;52.916;12.834;2022-12-05T00:18:22;101258.75;;;2.44;81.65
29825;BME280;16713;52.916;12.834;2022-12-05T00:20:48;101267.34;;;2.51;82.41
29825;BME280;16713;52.916;12.834;2022-12-05T00:23:15;101267.03;;;2.52;81.19
29825;BME280;16713;52.916;12.834;2022-12-05T00:25:41;101270.03;;;2.51;81.33
29825;BME280;16713;52.916;12.834;2022-12-05T00:28:08;101271.41;;;2.48;82.49
29825;BME280;16713;52.916;12.834;2022-12-05T00:30:34;101268.88;;;2.57;81.84
29825;BME280;16713;52.916;12.834;2022-12-05T00:33:00;101263.22;;;2.53;81.51
29825;BME280;16713;52.916;12.834;2022-12-05T00:35:27;101267.28;;;2.56;82.20
29825;BME280;16713;52.916;12.834;2022-12-05T00:37:54;101273.78;;;2.55;82.89
29825;BME280;16713;52.916;12.834;2022-12-05T00:40:20;101267.03;;;2.52;81.41
29825;BME280;16713;52.916;12.834;2022-12-05T00:42:46;101268.66;;;2.53;81.01
29825;BME280;16713;52.916;12.834;2022-12-05T00:45:17;101263.41;;;2.62;81.62
29825;BME280;16713;52.916;12.834;2022-12-05T00:47:44;101267.56;;;2.78;81.65
29825;BME280;16713;52.916;12.834;2022-12-05T00:50:10;101255.28;;;2.62;80.79
29825;BME280;16713;52.916;12.834;2022-12-05T00:52:37;101258.06;;;2.57;81.45
29825;BME280;16713;52.916;12.834;2022-12-05T00:55:04;101253.78;;;2.74;81.34
29825;BME280;16713;52.916;12.834;2022-12-05T00:57:31;101251.25;;;2.59;81.14
29825;BME280;16713;52.916;12.834;2022-12-05T00:59:57;101253.81;;;2.51;81.37
29825;BME280;16713;52.916;12.834;2022-12-05T01:02:24;101252.41;;;2.53;82.83
29825;BME280;16713;52.916;12.834;2022-12-05T01:04:51;101253.75;;;2.56;82.69
29825;BME280;16713;52.916;12.834;2022-12-05T01:07:17;101253.81;;;2.51;81.46
29825;BME280;16713;52.916;12.834;2022-12-05T01:09:44;101250.66;;;2.39;82.42
29825;BME280;16713;52.916;12.834;2022-12-05T01:12:10;101251.59;;;2.53;83.07
29825;BME280;16713;52.916;12.834;2022-12-05T01:14:36;101245.63;;;2.56;81.28
29825;BME280;16713;52.916;12.834;2022-12-05T01:17:03;101247.50;;;2.55;81.80
29825;BME280;16713;52.916;12.834;2022-12-05T01:19:31;101241.81;;;2.57;82.94
29825;BME280;16713;52.916;12.834;2022-12-05T01:21:58;101247.25;;;2.75;81.78
29825;BME280;16713;52.916;12.834;2022-12-05T01:24:26;101237.31;;;2.47;81.93
29825;BME280;16713;52.916;12.834;2022-12-05T01:26:53;101242.91;;;2.56;81.51
29825;BME280;16713;52.916;12.834;2022-12-05T01:29:21;101244.88;;;2.50;82.61
29825;BME280;16713;52.916;12.834;2022-12-05T01:31:48;101237.91;;;2.44;82.41
29825;BME280;16713;52.916;12.834;2022-12-05T01:34:16;101244.88;;;2.50;82.97
29825;BME280;16713;52.916;12.834;2022-12-05T01:36:43;101238.19;;;2.43;81.87
29825;BME280;16713;52.916;12.834;2022-12-05T01:39:11;101239.41;;;2.32;82.75
29825;BME280;16713;52.916;12.834;2022-12-05T01:41:42;101235.19;;;2.44;82.79
29825;BME280;16713;52.916;12.834;2022-12-05T01:46:43;101229.34;;;2.32;83.99
29825;BME280;16713;52.916;12.834;2022-12-05T01:49:10;101225.22;;;2.40;82.75
29825;BME280;16713;52.916;12.834;2022-12-05T01:51:41;101231.38;;;2.45;84.39
29825;BME280;16713;52.916;12.834;2022-12-05T01:54:09;101222.09;;;2.51;82.29
29825;BME280;16713;52.916;12.834;2022-12-05T01:56:39;101217.50;;;2.52;83.44
29825;BME280;16713;52.916;12.834;2022-12-05T01:59:08;101218.75;;;2.59;82.84
29825;BME280;16713;52.916;12.834;2022-12-05T02:01:36;101221.59;;;2.49;83.15
29825;BME280;16713;52.916;12.834;2022-12-05T02:04:04;101224.31;;;2.49;83.23
29825;BME280;16713;52.916;12.834;2022-12-05T02:06:31;101237.78;;;2.54;82.90
29825;BME280;16713;52.916;12.834;2022-12-05T02:08:58;101225.03;;;2.55;83.19
29825;BME280;16713;52.916;12.834;2022-12-05T02:11:27;101220.69;;;2.59;82.42
29825;BME280;16713;52.916;12.834;2022-12-05T02:24:53;101230.06;;;2.66;82.60
29825;BME280;16713;52.916;12.834;2022-12-05T02:30:12;101226.88;;;2.59;82.45
29825;BME280;16713;52.916;12.834;2022-12-05T02:36:03;101224.59;;;2.48;83.64
29825;BME280;16713;52.916;12.834;2022-12-05T02:38:59;101219.56;;;2.60;82.78
29825;BME280;16713;52.916;12.834;2022-12-05T02:44:03;101216.88;;;2.60;82.61
29825;BME280;16713;52.916;12.834;2022-12-05T02:46:33;101217.03;;;2.68;82.41
29825;BME280;16713;52.916;12.834;2022-12-05T02:49:09;101220.09;;;2.62;82.00
29825;BME280;16713;52.916;12.834;2022-12-05T02:51:48;101220.22;;;2.52;83.29
29825;BME280;16713;52.916;12.834;2022-12-05T02:54:23;101223.81;;;2.66;82.24
29825;BME280;16713;52.916;12.834;2022-12-05T02:56:51;101215.22;;;2.64;82.66
29825;BME280;16713;52.916;12.834;2022-12-05T02:59:19;101211.09;;;2.66;83.01
29825;BME280;16713;52.916;12.834;2022-12-05T03:01:49;101214.97;;;2.60;82.66
29825;BME280;16713;52.916;12.834;2022-12-05T03:04:18;101208.41;;;2.66;82.28
29825;BME280;16713;52.916;12.834;2022-12-05T03:06:50;101214.84;;;2.70;82.76
29825;BME280;16713;52.916;12.834;2022-12-05T03:09:41;101208.56;;;2.75;82.28
29825;BME280;16713;52.916;12.834;2022-12-05T03:12:22;101209.66;;;2.74;82.43
29825;BME280;16713;52.916;12.834;2022-12-05T03:15:35;101207.00;;;2.69;82.47
29825;BME280;16713;52.916;12.834;2022-12-05T03:17:52;101194.28;;;2.69;82.09
29825;BME280;16713;52.916;12.834;2022-12-05T03:20:29;101204.66;;;2.62;81.67
29825;BME280;16713;52.916;12.834;2022-12-05T03:23:07;101211.88;;;2.72;82.40
29825;BME280;16713;52.916;12.834;2022-12-05T03:25:51;101204.81;;;2.71;82.16
29825;BME280;16713;52.916;12.834;2022-12-05T03:28:23;101204.28;;;2.69;82.40
29825;BME280;16713;52.916;12.834;2022-12-05T03:30:55;101198.50;;;2.57;82.74
29825;BME280;16713;52.916;12.834;2022-12-05T03:33:28;101198.66;;;2.65;82.61
29825;BME280;16713;52.916;12.834;2022-12-05T03:36:18;101199.63;;;2.74;83.92
29825;BME280;16713;52.916;12.834;2022-12-05T03:38:57;101195.72;;;2.62;82.71
29825;BME280;16713;52.916;12.834;2022-12-05T03:41:39;101191.22;;;2.76;82.23
29825;BME280;16713;52.916;12.834;2022-12-05T03:44:12;101190.03;;;2.82;81.40
29825;BME280;16713;52.916;12.834;2022-12-05T03:46:50;101190.59;;;2.60;82.12
29825;BME280;16713;52.916;12.834;2022-12-05T03:49:33;101179.47;;;2.62;82.87
29825;BME280;16713;52.916;12.834;2022-12-05T03:52:09;101189.38;;;2.71;83.44
29825;BME280;16713;52.916;12.834;2022-12-05T03:54:44;101185.97;;;2.61;83.06
29825;BME280;16713;52.916;12.834;2022-12-05T03:57:17;101191.66;;;2.83;83.29
29825;BME280;16713;52.916;12.834;2022-12-05T04:00:00;101179.91;;;2.69;82.76
29825;BME280;16713;52.916;12.834;2022-12-05T04:02:37;101183.50;;;2.64;82.27
29825;BME280;16713;52.916;12.834;2022-12-05T04:05:18;101185.63;;;2.67;83.23
29825;BME280;16713;52.916;12.834;2022-12-05T04:07:52;101182.63;;;2.69;84.28
29825;BME280;16713;52.916;12.834;2022-12-05T04:10:25;101184.97;;;2.75;81.96
29825;BME280;16713;52.916;12.834;2022-12-05T04:12:55;101180.16;;;2.72;82.47
29825;BME280;16713;52.916;12.834;2022-12-05T04:15:29;101180.22;;;2.67;83.64
29825;BME280;16713;52.916;12.834;2022-12-05T04:18:19;101181.25;;;2.71;82.74
29825;BME280;16713;52.916;12.834;2022-12-05T04:20:48;101180.72;;;2.69;82.14
29825;BME280;16713;52.916;12.834;2022-12-05T04:23:34;101175.66;;;2.86;82.31
29825;BME280;16713;52.916;12.834;2022-12-05T04:26:11;101184.97;;;2.75;82.52
29825;BME280;16713;52.916;12.834;2022-12-05T04:29:02;101178.19;;;2.78;82.33
29825;BME280;16713;52.916;12.834;2022-12-05T04:31:41;101185.97;;;2.84;83.00
29825;BME280;16713;52.916;12.834;2022-12-05T04:34:11;101184.25;;;2.88;81.79
29825;BME280;16713;52.916;12.834;2022-12-05T04:36:44;101183.31;;;2.79;83.15
29825;BME280;16713;52.916;12.834;2022-12-05T04:39:16;101180.09;;;2.77;82.65
29825;BME280;16713;52.916;12.834;2022-12-05T04:41:52;101185.97;;;2.84;81.77
29825;BME280;16713;52.916;12.834;2022-12-05T04:44:24;101183.38;;;2.74;81.99
29825;BME280;16713;52.916;12.834;2022-12-05T04:46:53;101181.91;;;2.82;82.29
29825;BME280;16713;52.916;12.834;2022-12-05T04:49:24;101183.09;;;2.76;81.92
29825;BME280;16713;52.916;12.834;2022-12-05T04:51:56;101180.31;;;2.81;83.07
29825;BME280;16713;52.916;12.834;2022-12-05T04:54:35;101180.47;;;2.89;82.09
29825;BME280;16713;52.916;12.834;2022-12-05T04:57:20;101173.50;;;2.83;81.46
29825;BME280;16713;52.916;12.834;2022-12-05T04:59:48;101179.22;;;2.82;82.45
29825;BME280;16713;52.916;12.834;2022-12-05T05:02:18;101181.84;;;2.87;80.98
29825;BME280;16713;52.916;12.834;2022-12-05T05:04:49;101192.16;;;2.85;82.44
29825;BME280;16713;52.916;12.834;2022-12-05T05:07:17;101180.53;;;3.03;81.26
29825;BME280;16713;52.916;12.834;2022-12-05T05:09:44;101185.03;;;2.94;81.00
29825;BME280;16713;52.916;12.834;2022-12-05T05:12:11;101182.72;;;2.82;81.19
29825;BME280;16713;52.916;12.834;2022-12-05T05:14:44;101190.44;;;2.94;81.26
29825;BME280;16713;52.916;12.834;2022-12-05T05:17:10;101183.56;;;2.83;82.52
29825;BME280;16713;52.916;12.834;2022-12-05T05:19:37;101185.53;;;2.96;81.37
29825;BME280;16713;52.916;12.834;2022-12-05T05:22:03;101189.03;;;2.96;80.61
29825;BME280;16713;52.916;12.834;2022-12-05T05:24:29;101179.97;;;2.87;82.14
29825;BME280;16713;52.916;12.834;2022-12-05T05:26:56;101182.91;;;2.91;82.56
29825;BME280;16713;52.916;12.834;2022-12-05T05:29:23;101180.69;;;2.93;81.89
29825;BME280;16713;52.916;12.834;2022-12-05T05:31:49;101177.25;;;3.06;82.03
29825;BME280;16713;52.916;12.834;2022-12-05T05:34:16;101183.91;;;2.95;81.57
29825;BME280;16713;52.916;12.834;2022-12-05T05:36:42;101176.91;;;2.94;81.77
29825;BME280;16713;52.916;12.834;2022-12-05T05:39:13;101182.25;;;2.99;82.11
29825;BME280;16713;52.916;12.834;2022-12-05T05:41:40;101182.72;;;3.01;81.92
29825;BME280;16713;52.916;12.834;2022-12-05T05:44:07;101186.84;;;2.98;82.40
29825;BME280;16713;52.916;12.834;2022-12-05T05:46:34;101190.16;;;2.95;81.74
29825;BME280;16713;52.916;12.834;2022-12-05T05:49:01;101194.44;;;2.96;81.36
29825;BME280;16713;52.916;12.834;2022-12-05T05:51:28;101185.25;;;2.97;81.20
29825;BME280;16713;52.916;12.834;2022-12-05T05:53:56;101192.19;;;3.03;80.90
29825;BME280;16713;52.916;12.834;2022-12-05T05:56:23;101189.03;;;2.96;81.80
29825;BME280;16713;52.916;12.834;2022-12-05T05:58:57;101194.16;;;2.98;81.34
29825;BME280;16713;52.916;12.834;2022-12-05T06:01:24;101192.19;;;3.03;80.78
29825;BME280;16713;52.916;12.834;2022-12-05T06:03:51;101196.88;;;2.98;81.37
29825;BME280;16713;52.916;12.834;2022-12-05T06:06:19;101196.56;;;2.99;81.55
29825;BME280;16713;52.916;12.834;2022-12-05T06:08:47;101194.44;;;2.96;80.73
29825;BME280;16713;52.916;12.834;2022-12-05T06:11:18;101200.09;;;3.00;81.85
29825;BME280;16713;52.916;12.834;2022-12-05T06:13:52;101197.53;;;2.90;80.81
29825;BME280;16713;52.916;12.834;2022-12-05T06:16:19;101202.88;;;2.95;81.73
29825;BME280;16713;52.916;12.834;2022-12-05T06:18:47;101207.13;;;3.01;81.13
29825;BME280;16713;52.916;12.834;2022-12-05T06:21:14;101210.06;;;3.04;81.88
29825;BME280;16713;52.916;12.834;2022-12-05T06:23:42;101202.44;;;3.25;80.21
29825;BME280;16713;52.916;12.834;2022-12-05T06:26:11;101209.16;;;3.09;80.45
29825;BME280;16713;52.916;12.834;2022-12-05T06:28:38;101213.06;;;3.03;81.95
29825;BME280;16713;52.916;12.834;2022-12-05T06:31:09;101216.50;;;3.08;81.60
29825;BME280;16713;52.916;12.834;2022-12-05T06:33:36;101219.66;;;2.97;80.87
29825;BME280;16713;52.916;12.834;2022-12-05T06:36:09;101222.81;;;3.04;80.29
29825;BME280;16713;52.916;12.834;2022-12-05T06:38:36;101219.88;;;3.00;82.35
29825;BME280;16713;52.916;12.834;2022-12-05T06:41:10;101226.91;;;3.01;81.73
29825;BME280;16713;52.916;12.834;2022-12-05T06:43:37;101229.09;;;2.99;81.32
29825;BME280;16713;52.916;12.834;2022-12-05T06:46:04;101228.53;;;3.21;82.47
29825;BME280;16713;52.916;12.834;2022-12-05T06:48:31;101228.16;;;3.27;81.21
29825;BME280;16713;52.916;12.834;2022-12-05T06:50:58;101227.34;;;3.08;79.87
29825;BME280;16713;52.916;12.834;2022-12-05T06:53:24;101229.19;;;3.13;80.14
29825;BME280;16713;52.916;12.834;2022-12-05T06:56:13;101224.41;;;3.05;81.39
29825;BME280;16713;52.916;12.834;2022-12-05T06:58:41;101235.78;;;3.07;81.26
29825;BME280;16713;52.916;12.834;2022-12-05T07:01:12;101242.28;;;3.06;81.00
29825;BME280;16713;52.916;12.834;2022-12-05T07:03:58;101236.84;;;3.06;82.15
29825;BME280;16713;52.916;12.834;2022-12-05T07:06:26;101236.72;;;3.16;80.71
29825;BME280;16713;52.916;12.834;2022-12-05T07:08:52;101237.91;;;3.10;80.85
29825;BME280;16713;52.916;12.834;2022-12-05T07:11:19;101240.09;;;3.08;80.10
29825;BME280;16713;52.916;12.834;2022-12-05T07:13:46;101244.41;;;3.09;80.95
29825;BME280;16713;52.916;12.834;2022-12-05T07:16:12;101245.59;;;3.21;80.06
29825;BME280;16713;52.916;12.834;2022-12-05T07:18:39;101247.03;;;3.14;80.80
29825;BME280;16713;52.916;12.834;2022-12-05T07:21:09;101241.13;;;3.12;80.84
29825;BME280;16713;52.916;12.834;2022-12-05T07:23:40;101245.50;;;3.08;80.99
29825;BME280;16713;52.916;12.834;2022-12-05T07:26:08;101245.22;;;3.09;80.70
29825;BME280;16713;52.916;12.834;2022-12-05T07:28:35;101242.34;;;3.01;81.30
29825;BME280;16713;52.916;12.834;2022-12-05T07:31:03;101247.56;;;2.97;80.53
29825;BME280;16713;52.916;12.834;2022-12-05T07:33:30;101244.38;;;2.90;81.88
29825;BME280;16713;52.916;12.834;2022-12-05T07:36:17;101250.63;;;3.09;80.08
29825;BME280;16713;52.916;12.834;2022-12-05T07:38:44;101246.63;;;3.07;81.04
29825;BME280;16713;52.916;12.834;2022-12-05T07:41:22;101253.63;;;3.08;80.55
29825;BME280;16713;52.916;12.834;2022-12-05T07:43:50;101257.69;;;3.10;81.24
29825;BME280;16713;52.916;12.834;2022-12-05T07:46:18;101249.38;;;3.02;80.12
29825;BME280;16713;52.916;12.834;2022-12-05T07:48:44;101253.50;;;3.18;79.97
29825;BME280;16713;52.916;12.834;2022-12-05T07:51:12;101259.34;;;3.06;81.24
29825;BME280;16713;52.916;12.834;2022-12-05T07:53:39;101252.16;;;3.15;81.43
29825;BME280;16713;52.916;12.834;2022-12-05T07:56:08;101260.09;;;3.12;80.24
29825;BME280;16713;52.916;12.834;2022-12-05T07:58:36;101260.94;;;3.07;81.60
29825;BME280;16713;52.916;12.834;2022-12-05T08:01:14;101256.88;;;3.10;80.90
29825;BME280;16713;52.916;12.834;2022-12-05T08:03:42;101262.22;;;3.15;81.83
29825;BME280;16713;52.916;12.834;2022-12-05T08:06:11;101261.03;;;3.02;81.38
29825;BME280;16713;52.916;12.834;2022-12-05T08:08:38;101260.66;;;3.09;80.64
29825;BME280;16713;52.916;12.834;2022-12-05T08:11:16;101258.53;;;3.06;81.45
29825;BME280;16713;52.916;12.834;2022-12-05T08:13:44;101261.19;;;3.11;81.21
29825;BME280;16713;52.916;12.834;2022-12-05T08:16:16;101261.69;;;3.13;81.13
29825;BME280;16713;52.916;12.834;2022-12-05T08:18:43;101254.88;;;3.15;80.42
29825;BME280;16713;52.916;12.834;2022-12-05T08:21:12;101256.00;;;3.14;80.60
29825;BME280;16713;52.916;12.834;2022-12-05T08:23:39;101251.88;;;3.17;80.59
29825;BME280;16713;52.916;12.834;2022-12-05T08:26:17;101253.88;;;3.11;81.86
29825;BME280;16713;52.916;12.834;2022-12-05T08:28:46;101257.88;;;3.14;81.27
29825;BME280;16713;52.916;12.834;2022-12-05T08:31:17;101246.84;;;3.10;81.12
29825;BME280;16713;52.916;12.834;2022-12-05T08:33:44;101255.75;;;3.11;81.75
29825;BME280;16713;52.916;12.834;2022-12-05T08:36:13;101253.63;;;3.08;80.03
29825;BME280;16713;52.916;12.834;2022-12-05T08:38:41;101255.56;;;3.26;81.28
29825;BME280;16713;52.916;12.834;2022-12-05T08:41:12;101256.28;;;3.13;79.26
29825;BME280;16713;52.916;12.834;2022-12-05T08:43:39;101254.47;;;3.27;80.47
29825;BME280;16713;52.916;12.834;2022-12-05T08:46:06;101249.41;;;3.20;80.49
29825;BME280;16713;52.916;12.834;2022-12-05T08:48:34;101253.88;;;3.11;79.20
29825;BME280;16713;52.916;12.834;2022-12-05T08:51:09;101261.41;;;3.14;80.60
29825;BME280;16713;52.916;12.834;2022-12-05T08:53:37;101260.88;;;3.12;81.78
29825;BME280;16713;52.916;12.834;2022-12-05T08:56:10;101264.63;;;3.16;81.80
29825;BME280;16713;52.916;12.834;2022-12-05T08:58:37;101264.28;;;3.23;80.64
29825;BME280;16713;52.916;12.834;2022-12-05T09:01:23;101264.56;;;3.21;81.52
29825;BME280;16713;52.916;12.834;2022-12-05T09:03:56;101257.53;;;3.20;80.66
29825;BME280;16713;52.916;12.834;2022-12-05T09:09:38;101264.78;;;3.25;81.83
29825;BME280;16713;52.916;12.834;2022-12-05T09:12:04;101261.63;;;3.36;82.09
29825;BME280;16713;52.916;12.834;2022-12-05T09:14:31;101265.81;;;3.29;81.64
29825;BME280;16713;52.916;12.834;2022-12-05T09:16:58;101261.94;;;3.35;80.26
29825;BME280;16713;52.916;12.834;2022-12-05T09:19:25;101256.66;;;3.25;81.04
29825;BME280;16713;52.916;12.834;2022-12-05T09:21:53;101263.63;;;3.31;81.46
29825;BME280;16713;52.916;12.834;2022-12-05T09:24:20;101258.69;;;3.33;80.94
29825;BME280;16713;52.916;12.834;2022-12-05T09:26:46;101259.81;;;3.32;81.46
29825;BME280;16713;52.916;12.834;2022-12-05T09:29:13;101262.75;;;3.35;81.09
29825;BME280;16713;52.916;12.834;2022-12-05T09:31:43;101265.47;;;3.35;81.52
29825;BME280;16713;52.916;12.834;2022-12-05T09:34:11;101261.84;;;3.40;82.04
29825;BME280;16713;52.916;12.834;2022-12-05T09:36:40;101257.56;;;3.39;81.81
29825;BME280;16713;52.916;12.834;2022-12-05T09:39:06;101255.44;;;3.36;80.26
29825;BME280;16713;52.916;12.834;2022-12-05T09:47:50;101242.44;;;3.33;81.12
29825;BME280;16713;52.916;12.834;2022-12-05T09:50:28;101237.00;;;3.33;80.48
29825;BME280;16713;52.916;12.834;2022-12-05T09:58:39;101231.53;;;3.38;80.88
29825;BME280;16713;52.916;12.834;2022-12-05T10:06:39;101245.88;;;3.38;80.73
29825;BME280;16713;52.916;12.834;2022-12-05T10:15:12;101237.16;;;3.41;80.23
29825;BME280;16713;52.916;12.834;2022-12-05T10:17:45;101233.38;;;3.42;80.64
29825;BME280;16713;52.916;12.834;2022-12-05T10:20:17;101239.38;;;3.58;81.73
29825;BME280;16713;52.916;12.834;2022-12-05T10:25:13;101244.72;;;3.44;82.56
29825;BME280;16713;52.916;12.834;2022-12-05T10:27:49;101236.78;;;3.48;81.81
29825;BME280;16713;52.916;12.834;2022-12-05T10:30:22;101230.25;;;3.49;80.75
29825;BME280;16713;52.916;12.834;2022-12-05T10:32:54;101230.78;;;3.51;81.82
29825;BME280;16713;52.916;12.834;2022-12-05T10:35:29;101231.22;;;3.58;81.11
29825;BME280;16713;52.916;12.834;2022-12-05T10:38:25;101233.19;;;3.52;80.15
29825;BME280;16713;52.916;12.834;2022-12-05T10:40:56;101228.28;;;3.55;80.91
29825;BME280;16713;52.916;12.834;2022-12-05T10:43:29;101228.22;;;3.60;80.92
29825;BME280;16713;52.916;12.834;2022-12-05T10:45:57;101234.47;;;3.60;80.55
29825;BME280;16713;52.916;12.834;2022-12-05T10:48:24;101236.88;;;3.62;81.33
29825;BME280;16713;52.916;12.834;2022-12-05T10:50:54;101228.50;;;3.58;80.67
29825;BME280;16713;52.916;12.834;2022-12-05T10:53:27;101227.69;;;3.58;81.58
29825;BME280;16713;52.916;12.834;2022-12-05T10:55:54;101225.06;;;3.52;81.25
29825;BME280;16713;52.916;12.834;2022-12-05T10:58:53;101230.19;;;3.54;81.27
29825;BME280;16713;52.916;12.834;2022-12-05T11:01:21;101221.56;;;3.52;81.75
29825;BME280;16713;52.916;12.834;2022-12-05T11:03:58;101218.84;;;3.52;81.33
29825;BME280;16713;52.916;12.834;2022-12-05T11:06:30;101219.03;;;3.56;80.54
29825;BME280;16713;52.916;12.834;2022-12-05T11:09:02;101223.38;;;3.57;80.87
29825;BME280;16713;52.916;12.834;2022-12-05T11:11:32;101216.50;;;3.45;81.55
29825;BME280;16713;52.916;12.834;2022-12-05T11:14:01;101217.22;;;3.51;81.05
29825;BME280;16713;52.916;12.834;2022-12-05T11:16:35;101218.75;;;3.57;81.10
29825;BME280;16713;52.916;12.834;2022-12-05T11:21:49;101219.94;;;3.51;80.63
29825;BME280;16713;52.916;12.834;2022-12-05T11:24:26;101220.69;;;3.57;81.79
29825;BME280;16713;52.916;12.834;2022-12-05T11:26:55;101221.75;;;3.56;82.22
29825;BME280;16713;52.916;12.834;2022-12-05T11:31:55;101218.97;;;3.61;80.92
29825;BME280;16713;52.916;12.834;2022-12-05T11:34:30;101211.50;;;3.52;81.40
29825;BME280;16713;52.916;12.834;2022-12-05T11:37:13;101212.03;;;3.55;80.05
29825;BME280;16713;52.916;12.834;2022-12-05T11:39:40;101203.88;;;3.55;80.86
29825;BME280;16713;52.916;12.834;2022-12-05T11:42:34;101203.28;;;3.58;81.79
29825;BME280;16713;52.916;12.834;2022-12-05T11:45:09;101202.00;;;3.55;82.37
29825;BME280;16713;52.916;12.834;2022-12-05T11:50:44;101208.13;;;3.61;80.26
29825;BME280;16713;52.916;12.834;2022-12-05T11:56:21;101194.88;;;3.59;81.87
29825;BME280;16713;52.916;12.834;2022-12-05T12:04:41;101190.25;;;3.60;81.02
29825;BME280;16713;52.916;12.834;2022-12-05T12:09:57;101196.50;;;3.60;80.78
29825;BME280;16713;52.916;12.834;2022-12-05T12:21:13;101189.66;;;3.63;80.91
29825;BME280;16713;52.916;12.834;2022-12-05T12:27:26;101191.69;;;3.71;82.22
29825;BME280;16713;52.916;12.834;2022-12-05T12:35:26;101189.75;;;3.58;81.37
29825;BME280;16713;52.916;12.834;2022-12-05T12:48:32;101182.81;;;3.65;82.00
29825;BME280;16713;52.916;12.834;2022-12-05T12:51:01;101182.72;;;3.57;82.69
29825;BME280;16713;52.916;12.834;2022-12-05T13:02:02;101171.97;;;3.65;82.11
29825;BME280;16713;52.916;12.834;2022-12-05T13:04:39;101168.63;;;3.55;81.22
29825;BME280;16713;52.916;12.834;2022-12-05T13:07:15;101167.16;;;3.62;80.65
29825;BME280;16713;52.916;12.834;2022-12-05T13:09:49;101168.00;;;3.76;80.93
29825;BME280;16713;52.916;12.834;2022-12-05T13:12:23;101164.41;;;3.48;81.37
29825;BME280;16713;52.916;12.834;2022-12-05T13:14:56;101169.59;;;3.45;81.41
29825;BME280;16713;52.916;12.834;2022-12-05T13:17:23;101163.06;;;3.46;82.24
29825;BME280;16713;52.916;12.834;2022-12-05T13:19:51;101167.34;;;3.52;81.84
29825;BME280;16713;52.916;12.834;2022-12-05T13:22:22;101165.94;;;3.55;82.03
29825;BME280;16713;52.916;12.834;2022-12-05T13:24:50;101165.72;;;3.51;82.03
29825;BME280;16713;52.916;12.834;2022-12-05T13:27:23;101169.81;;;3.48;82.13
29825;BME280;16713;52.916;12.834;2022-12-05T13:30:01;101169.53;;;3.50;82.26
29825;BME280;16713;52.916;12.834;2022-12-05T13:32:35;101168.13;;;3.52;82.80
29825;BME280;16713;52.916;12.834;2022-12-05T13:37:32;101169.31;;;3.46;82.00
29825;BME280;16713;52.916;12.834;2022-12-05T13:40:26;101168.63;;;3.55;82.76
29825;BME280;16713;52.916;12.834;2022-12-05T13:43:14;101171.78;;;3.62;81.29
29825;BME280;16713;52.916;12.834;2022-12-05T13:45:59;101163.94;;;3.60;82.16
29825;BME280;16713;52.916;12.834;2022-12-05T13:48:29;101163.16;;;3.73;80.57
29825;BME280;16713;52.916;12.834;2022-12-05T13:51:04;101165.00;;;3.78;80.51
29825;BME280;16713;52.916;12.834;2022-12-05T13:53:42;101163.06;;;3.78;80.22
29825;BME280;16713;52.916;12.834;2022-12-05T13:58:47;101167.97;;;3.63;80.82
29825;BME280;16713;52.916;12.834;2022-12-05T14:09:26;101171.50;;;3.63;82.09
29825;BME280;16713;52.916;12.834;2022-12-05T14:17:22;101172.28;;;3.64;81.90
29825;BME280;16713;52.916;12.834;2022-12-05T14:22:40;101152.56;;;3.90;80.82
29825;BME280;16713;52.916;12.834;2022-12-05T14:33:16;101161.72;;;3.62;82.27
29825;BME280;16713;52.916;12.834;2022-12-05T14:35:48;101149.28;;;3.61;81.40
29825;BME280;16713;52.916;12.834;2022-12-05T14:38:27;101147.47;;;3.70;80.95
29825;BME280;16713;52.916;12.834;2022-12-05T14:40:56;101150.53;;;3.82;81.82
29825;BME280;16713;52.916;12.834;2022-12-05T14:43:36;101159.34;;;3.74;81.73
29825;BME280;16713;52.916;12.834;2022-12-05T14:46:07;101163.56;;;3.67;82.01
29825;BME280;16713;52.916;12.834;2022-12-05T14:48:41;101149.09;;;3.71;81.26
29825;BME280;16713;52.916;12.834;2022-12-05T14:54:17;101156.59;;;3.61;81.04
29825;BME280;16713;52.916;12.834;2022-12-05T14:56:44;101155.81;;;3.60;81.38
29825;BME280;16713;52.916;12.834;2022-12-05T14:59:35;101157.19;;;3.58;82.50
29825;BME280;16713;52.916;12.834;2022-12-05T15:02:16;101154.84;;;3.83;81.65
29825;BME280;16713;52.916;12.834;2022-12-05T15:07:35;101158.31;;;3.70;81.82
29825;BME280;16713;52.916;12.834;2022-12-05T15:10:14;101150.84;;;3.81;81.98
29825;BME280;16713;52.916;12.834;2022-12-05T15:12:55;101160.34;;;3.65;80.94
29825;BME280;16713;52.916;12.834;2022-12-05T15:20:51;101159.44;;;3.69;81.28
29825;BME280;16713;52.916;12.834;2022-12-05T15:23:46;101164.19;;;3.77;82.43
29825;BME280;16713;52.916;12.834;2022-12-05T15:37:15;101163.16;;;3.73;81.08
29825;BME280;16713;52.916;12.834;2022-12-05T15:40:07;101161.13;;;3.65;82.04
29825;BME280;16713;52.916;12.834;2022-12-05T15:42:45;101153.72;;;3.71;81.64
29825;BME280;16713;52.916;12.834;2022-12-05T15:47:39;101157.53;;;3.70;82.43
29825;BME280;16713;52.916;12.834;2022-12-05T15:50:41;101153.28;;;3.64;82.60
29825;BME280;16713;52.916;12.834;2022-12-05T15:55:50;101154.69;;;3.61;81.32
29825;BME280;16713;52.916;12.834;2022-12-05T15:58:24;101156.72;;;3.69;82.88
29825;BME280;16713;52.916;12.834;2022-12-05T16:01:03;101162.47;;;3.68;82.25